Terminal Aerodrome Forecast
Issued by NWS Milwaukee/Sullivan, WI

Home | Current Version | Previous Version | Text Only | Print | Product List | Glossary On
Versions: 1 2 3 4 5 6 7 8 9 10 11 12 13 14 15 16 17 18 19 20 21 22 23 24 25 26
000
FTUS43 KMKX 240905 AAA
TAFMSN
TAF AMD
KMSN 240905Z 2409/2506 11011KT P6SM -SHRA SCT035 OVC050
     FM241300 13014G24KT P6SM VCSH SCT025 OVC050
     FM241600 14015G27KT 5SM -SHRA BR SCT025 OVC050CB PROB30
      2418/2422 3SM -TSRA BKN025 OVC035CB
     FM250000 17008KT 6SM -SHRA BR OVC035
     FM250300 20005KT 6SM BR OVC025=

USA.gov is the U.S. government's official web portal to all federal, state and local government web resources and services.